Time;durP1;ratioP1;P1;durP2;ratioP2;P2;SDS_P1;SDS_P2;PMS_P1;PMS_P2;Temp;Humidity;BMP_temperature;BMP_pressure;BME280_temperature;BME280_humidity;BME280_pressure;Samples;Min_cycle;Max_cycle;Signal;HPM_P1;HPM_P2
2024/03/11 00:02:05;;;;;;;;;;;;;;;;;;5090629;28;19916;-59
2024/03/11 00:04:30;;;;;;;;;;;;;;;;;;5092335;28;19919;-60
2024/03/11 00:06:57;;;;;;;;;;;;;;;;;;5088604;28;20585;-60
2024/03/11 00:09:28;;;;;;;;;;;;;;;;;;5087488;28;19912;-60
2024/03/11 00:11:56;;;;;;;;;;;;;;;;;;5088875;28;20465;-61
2024/03/11 00:14:26;;;;;;;;;;;;;;;;;;5092131;28;20376;-59
2024/03/11 00:16:52;;;;;;;;;;;;;;;;;;5085465;28;19928;-60
2024/03/11 00:19:17;;;;;;;;;;;;;;;;;;5089758;28;20007;-59
2024/03/11 00:21:42;;;;;;;;;;;;;;;;;;5088843;28;20003;-60
2024/03/11 00:24:07;;;;;;;;;;;;;;;;;;5089195;28;19923;-59
2024/03/11 00:26:32;;;;;;;;;;;;;;;;;;5090946;28;19919;-59
2024/03/11 00:28:57;;;;;;;;;;;;;;;;;;5080616;28;20013;-59
2024/03/11 00:31:27;;;;;;;;;;;;;;;;;;5087700;28;19919;-59
2024/03/11 00:33:52;;;;;;;;;;;;;;;;;;5080391;28;21197;-59
2024/03/11 00:36:17;;;;;;;;;;;;;;;;;;5089682;28;20000;-60
2024/03/11 00:38:43;;;;;;;;;;;;;;;;;;5086300;28;19994;-60
2024/03/11 00:41:08;;;;;;;;;;;;;;;;;;5085648;28;19931;-59
2024/03/11 00:43:33;;;;;;;;;;;;;;;;;;5084403;28;19921;-61
2024/03/11 00:46:01;;;;;;;;;;;;;;;;;;5087179;28;19912;-59
2024/03/11 00:48:27;;;;;;;;;;;;;;;;;;5087544;28;20531;-60
2024/03/11 00:50:52;;;;;;;;;;;;;;;;;;5082946;28;19935;-60
2024/03/11 00:53:18;;;;;;;;;;;;;;;;;;5084579;28;19919;-59
2024/03/11 00:55:44;;;;;;;;;;;;;;;;;;5085311;28;20012;-59
2024/03/11 00:58:09;;;;;;;;;;;;;;;;;;5081451;28;19920;-60
2024/03/11 01:00:34;;;;;;;;;;;;;;;;;;5082659;28;20289;-59
2024/03/11 01:03:01;;;;;;;;;;;;;;;;;;5090327;28;19958;-60
2024/03/11 01:05:27;;;;;;;;;;;;;;;;;;5078638;28;20330;-60
2024/03/11 01:07:52;;;;;;;;;;;;;;;;;;5086519;28;20373;-59
2024/03/11 01:10:18;;;;;;;;;;;;;;;;;;5084261;28;19917;-60
2024/03/11 01:12:43;;;;;;;;;;;;;;;;;;5089245;28;19916;-60
2024/03/11 01:15:09;;;;;;;;;;;;;;;;;;5086675;28;19912;-60
2024/03/11 01:17:37;;;;;;;;;;;;;;;;;;5088597;28;19912;-60
2024/03/11 01:20:02;;;;;;;;;;;;;;;;;;5084369;28;19919;-60
2024/03/11 01:22:27;;;;;;;;;;;;;;;;;;5083689;28;19922;-60
2024/03/11 01:24:52;;;;;;;;;;;;;;;;;;5084043;28;19955;-60
2024/03/11 01:27:19;;;;;;;;;;;;;;;;;;5082255;28;19919;-61
2024/03/11 01:29:44;;;;;;;;;;;;;;;;;;5084546;28;19920;-60
2024/03/11 01:32:11;;;;;;;;;;;;;;;;;;5087472;28;20284;-60
2024/03/11 01:34:38;;;;;;;;;;;;;;;;;;5090393;28;20047;-59
2024/03/11 01:37:04;;;;;;;;;;;;;;;;;;5086146;28;20039;-59
2024/03/11 01:39:42;;;;;;;;;;;;;;;;;;5090616;28;20003;-59
2024/03/11 01:42:07;;;;;;;;;;;;;;;;;;5082790;28;19924;-60
2024/03/11 01:44:33;;;;;;;;;;;;;;;;;;5087610;28;19912;-60
2024/03/11 01:46:58;;;;;;;;;;;;;;;;;;5084431;28;19915;-60
2024/03/11 01:49:25;;;;;;;;;;;;;;;;;;5086973;28;19916;-59
2024/03/11 01:51:51;;;;;;;;;;;;;;;;;;5087850;28;20321;-59
2024/03/11 01:54:16;;;;;;;;;;;;;;;;;;5088678;28;19955;-60
2024/03/11 01:56:41;;;;;;;;;;;;;;;;;;5088607;28;19965;-59
2024/03/11 01:59:07;;;;;;;;;;;;;;;;;;5083950;28;20007;-60
2024/03/11 02:01:33;;;;;;;;;;;;;;;;;;5085747;28;19915;-59
2024/03/11 02:03:58;;;;;;;;;;;;;;;;;;5085486;28;19919;-60
2024/03/11 02:06:24;;;;;;;;;;;;;;;;;;5088847;28;19912;-61
2024/03/11 02:08:49;;;;;;;;;;;;;;;;;;5087768;28;20533;-60
2024/03/11 02:11:15;;;;;;;;;;;;;;;;;;5082486;28;19925;-60
2024/03/11 02:13:41;;;;;;;;;;;;;;;;;;5083506;28;19947;-60
2024/03/11 02:16:06;;;;;;;;;;;;;;;;;;5087063;28;19916;-60
2024/03/11 02:18:34;;;;;;;;;;;;;;;;;;5086019;28;19915;-60
2024/03/11 02:20:59;;;;;;;;;;;;;;;;;;5091202;28;20006;-59
2024/03/11 02:23:24;;;;;;;;;;;;;;;;;;5095095;28;19995;-59
2024/03/11 02:25:51;;;;;;;;;;;;;;;;;;5092209;28;20318;-59
2024/03/11 02:28:16;;;;;;;;;;;;;;;;;;5089136;28;19945;-60
2024/03/11 02:30:42;;;;;;;;;;;;;;;;;;5085729;28;19962;-60
2024/03/11 02:33:07;;;;;;;;;;;;;;;;;;5086863;28;20356;-60
2024/03/11 02:35:32;;;;;;;;;;;;;;;;;;5085042;28;19927;-60
2024/03/11 02:37:57;;;;;;;;;;;;;;;;;;5083057;28;19945;-59
2024/03/11 02:40:26;;;;;;;;;;;;;;;;;;5083058;28;20054;-60
2024/03/11 02:42:51;;;;;;;;;;;;;;;;;;5082916;28;20754;-60
2024/03/11 02:45:19;;;;;;;;;;;;;;;;;;5083502;28;19940;-59
2024/03/11 02:47:44;;;;;;;;;;;;;;;;;;5083016;28;20024;-61
2024/03/11 02:50:09;;;;;;;;;;;;;;;;;;5083423;28;20392;-60
2024/03/11 02:52:34;;;;;;;;;;;;;;;;;;5080931;28;20417;-60
2024/03/11 02:55:01;;;;;;;;;;;;;;;;;;5080776;28;19916;-60
2024/03/11 02:57:26;;;;;;;;;;;;;;;;;;5084900;28;19927;-60
2024/03/11 02:59:51;;;;;;;;;;;;;;;;;;5081429;28;19912;-60
2024/03/11 03:02:16;;;;;;;;;;;;;;;;;;5080707;28;19923;-60
2024/03/11 03:04:41;;;;;;;;;;;;;;;;;;5088212;28;19954;-59
2024/03/11 03:07:07;;;;;;;;;;;;;;;;;;5083566;28;19958;-59
2024/03/11 03:09:32;;;;;;;;;;;;;;;;;;5082821;28;20021;-60
2024/03/11 03:11:58;;;;;;;;;;;;;;;;;;5083769;28;19912;-60
2024/03/11 03:14:23;;;;;;;;;;;;;;;;;;5085207;28;19919;-60
2024/03/11 03:16:48;;;;;;;;;;;;;;;;;;5085421;28;19915;-60
2024/03/11 03:19:15;;;;;;;;;;;;;;;;;;5084055;28;19920;-60
2024/03/11 03:21:40;;;;;;;;;;;;;;;;;;5083025;28;19914;-60
2024/03/11 03:24:05;;;;;;;;;;;;;;;;;;5082301;28;19916;-61
2024/03/11 03:26:30;;;;;;;;;;;;;;;;;;5086513;28;19995;-60
2024/03/11 03:28:56;;;;;;;;;;;;;;;;;;5083538;28;19962;-60
2024/03/11 03:31:27;;;;;;;;;;;;;;;;;;5081725;28;19954;-59
2024/03/11 03:33:52;;;;;;;;;;;;;;;;;;5079752;28;19952;-60
2024/03/11 03:36:18;;;;;;;;;;;;;;;;;;5088367;28;19970;-59
2024/03/11 03:38:43;;;;;;;;;;;;;;;;;;5078776;28;20260;-62
2024/03/11 03:41:09;;;;;;;;;;;;;;;;;;5077965;28;20365;-59
2024/03/11 03:43:34;;;;;;;;;;;;;;;;;;5083096;28;22295;-62
2024/03/11 03:45:59;;;;;;;;;;;;;;;;;;5082917;28;19913;-60
2024/03/11 03:48:24;;;;;;;;;;;;;;;;;;5080174;28;19927;-59
2024/03/11 03:50:50;;;;;;;;;;;;;;;;;;5086435;28;19950;-60
2024/03/11 03:53:15;;;;;;;;;;;;;;;;;;5084928;28;19969;-60
2024/03/11 03:55:40;;;;;;;;;;;;;;;;;;5083724;28;19935;-60
2024/03/11 03:58:05;;;;;;;;;;;;;;;;;;5086081;28;19923;-60
2024/03/11 04:00:31;;;;;;;;;;;;;;;;;;5079245;28;19913;-60
2024/03/11 04:02:56;;;;;;;;;;;;;;;;;;5082767;28;19912;-60
2024/03/11 04:05:22;;;;;;;;;;;;;;;;;;5091695;28;20010;-60
2024/03/11 04:07:47;;;;;;;;;;;;;;;;;;5083331;28;20398;-60
2024/03/11 04:10:13;;;;;;;;;;;;;;;;;;5086152;28;20379;-60
2024/03/11 04:12:38;;;;;;;;;;;;;;;;;;5085742;28;19920;-64
2024/03/11 04:15:04;;;;;;;;;;;;;;;;;;5080954;28;19920;-64
2024/03/11 04:17:32;;;;;;;;;;;;;;;;;;5087325;28;19919;-65
2024/03/11 04:19:57;;;;;;;;;;;;;;;;;;5087332;28;19912;-65
2024/03/11 04:22:22;;;;;;;;;;;;;;;;;;5085684;28;19919;-65
2024/03/11 04:24:48;;;;;;;;;;;;;;;;;;5086628;28;19920;-64
2024/03/11 04:27:13;;;;;;;;;;;;;;;;;;5083861;28;20714;-64
2024/03/11 04:29:39;;;;;;;;;;;;;;;;;;5086407;28;20345;-64
2024/03/11 04:32:06;;;;;;;;;;;;;;;;;;5083927;28;20541;-64
2024/03/11 04:34:32;;;;;;;;;;;;;;;;;;5088019;28;19943;-64
2024/03/11 04:36:57;;;;;;;;;;;;;;;;;;5087938;28;19919;-64
2024/03/11 04:39:23;;;;;;;;;;;;;;;;;;5087087;28;19912;-64
2024/03/11 04:41:48;;;;;;;;;;;;;;;;;;5089348;28;19956;-64
2024/03/11 04:44:13;;;;;;;;;;;;;;;;;;5085715;28;19916;-65
2024/03/11 04:46:38;;;;;;;;;;;;;;;;;;5082487;28;19916;-65
2024/03/11 04:49:03;;;;;;;;;;;;;;;;;;5081003;28;19912;-64
2024/03/11 04:51:28;;;;;;;;;;;;;;;;;;5085142;28;20291;-66
2024/03/11 04:53:53;;;;;;;;;;;;;;;;;;5083654;28;19931;-64
2024/03/11 04:56:19;;;;;;;;;;;;;;;;;;5082463;28;19958;-65
2024/03/11 04:58:44;;;;;;;;;;;;;;;;;;5083676;28;19923;-64
2024/03/11 05:01:09;;;;;;;;;;;;;;;;;;5083418;28;19913;-64
2024/03/11 05:03:34;;;;;;;;;;;;;;;;;;5088079;28;19917;-64
2024/03/11 05:06:00;;;;;;;;;;;;;;;;;;5084246;28;19916;-64
2024/03/11 05:08:25;;;;;;;;;;;;;;;;;;5084910;28;19916;-64
2024/03/11 05:10:51;;;;;;;;;;;;;;;;;;5085744;28;20377;-64
2024/03/11 05:13:16;;;;;;;;;;;;;;;;;;5087026;28;19931;-64
2024/03/11 05:15:41;;;;;;;;;;;;;;;;;;5080115;28;19917;-64
2024/03/11 05:18:07;;;;;;;;;;;;;;;;;;5086546;28;20370;-65
2024/03/11 05:20:33;;;;;;;;;;;;;;;;;;5086055;28;20597;-65
2024/03/11 05:22:58;;;;;;;;;;;;;;;;;;5084110;28;19913;-65
2024/03/11 05:25:23;;;;;;;;;;;;;;;;;;5081915;28;19919;-65
2024/03/11 05:27:50;;;;;;;;;;;;;;;;;;5086609;28;20359;-64
2024/03/11 05:30:17;;;;;;;;;;;;;;;;;;5081536;28;20250;-64
2024/03/11 05:32:42;;;;;;;;;;;;;;;;;;5083360;28;19916;-64
2024/03/11 05:35:07;;;;;;;;;;;;;;;;;;5088756;28;19920;-64
2024/03/11 05:37:33;;;;;;;;;;;;;;;;;;5079627;28;19912;-65
2024/03/11 05:40:03;;;;;;;;;;;;;;;;;;5083758;28;19958;-64
2024/03/11 05:42:28;;;;;;;;;;;;;;;;;;5084522;28;20650;-65
2024/03/11 05:44:55;;;;;;;;;;;;;;;;;;5081264;28;20408;-65
2024/03/11 05:47:23;;;;;;;;;;;;;;;;;;5080380;28;19947;-65
2024/03/11 05:49:48;;;;;;;;;;;;;;;;;;5085340;28;19957;-65
2024/03/11 05:52:14;;;;;;;;;;;;;;;;;;5085196;28;20098;-64
2024/03/11 05:54:39;;;;;;;;;;;;;;;;;;5086899;28;19913;-65
2024/03/11 05:57:04;;;;;;;;;;;;;;;;;;5081804;28;19920;-65
2024/03/11 05:59:31;;;;;;;;;;;;;;;;;;5077654;28;19912;-65
2024/03/11 06:01:57;;;;;;;;;;;;;;;;;;5082228;28;19917;-64
2024/03/11 06:04:22;;;;;;;;;;;;;;;;;;5088399;28;19916;-64
2024/03/11 06:06:47;;;;;;;;;;;;;;;;;;5082339;28;19920;-65
2024/03/11 06:09:14;;;;;;;;;;;;;;;;;;5088777;28;20324;-64
2024/03/11 06:11:40;;;;;;;;;;;;;;;;;;5086426;28;19916;-65
2024/03/11 06:14:05;;;;;;;;;;;;;;;;;;5087748;28;19954;-65
2024/03/11 06:16:31;;;;;;;;;;;;;;;;;;5086892;28;19962;-65
2024/03/11 06:18:56;;;;;;;;;;;;;;;;;;5084065;28;19909;-65
2024/03/11 06:21:21;;;;;;;;;;;;;;;;;;5080611;28;19919;-65
2024/03/11 06:23:48;;;;;;;;;;;;;;;;;;5079134;28;20374;-65
2024/03/11 06:26:13;;;;;;;;;;;;;;;;;;5086847;28;19912;-64
2024/03/11 06:28:40;;;;;;;;;;;;;;;;;;5079403;28;19980;-65
2024/03/11 06:31:05;;;;;;;;;;;;;;;;;;5078716;28;19916;-64
2024/03/11 06:33:30;;;;;;;;;;;;;;;;;;5086576;28;20061;-65
2024/03/11 06:35:56;;;;;;;;;;;;;;;;;;5082668;28;19916;-65
2024/03/11 06:38:21;;;;;;;;;;;;;;;;;;5081157;28;19915;-65
2024/03/11 06:40:46;;;;;;;;;;;;;;;;;;5088697;28;19931;-64
2024/03/11 06:43:12;;;;;;;;;;;;;;;;;;5082969;28;19924;-65
2024/03/11 06:45:37;;;;;;;;;;;;;;;;;;5082211;28;19912;-64
2024/03/11 06:48:03;;;;;;;;;;;;;;;;;;5086714;28;20308;-64
2024/03/11 06:50:28;;;;;;;;;;;;;;;;;;5078171;28;20003;-64
2024/03/11 06:52:54;;;;;;;;;;;;;;;;;;5080707;28;19916;-65
2024/03/11 06:55:19;;;;;;;;;;;;;;;;;;5079980;28;19912;-64
2024/03/11 06:57:44;;;;;;;;;;;;;;;;;;5086838;28;20376;-64
2024/03/11 07:00:19;;;;;;;;;;;;;;;;;;5085850;28;19912;-67
2024/03/11 07:02:45;;;;;;;;;;;;;;;;;;5086826;28;19912;-67
2024/03/11 07:05:13;;;;;;;;;;;;;;;;;;5083113;28;19991;-66
2024/03/11 07:07:38;;;;;;;;;;;;;;;;;;5080596;28;19927;-66
2024/03/11 07:10:05;;;;;;;;;;;;;;;;;;5084715;28;21456;-66
2024/03/11 07:12:30;;;;;;;;;;;;;;;;;;5084519;28;20347;-67
2024/03/11 07:14:57;;;;;;;;;;;;;;;;;;5081635;28;20380;-70
2024/03/11 07:17:22;;;;;;;;;;;;;;;;;;5087283;28;19995;-66
2024/03/11 07:19:47;;;;;;;;;;;;;;;;;;5082015;28;20424;-67
2024/03/11 07:22:12;;;;;;;;;;;;;;;;;;5080535;28;19916;-67
2024/03/11 07:24:37;;;;;;;;;;;;;;;;;;5084217;28;19912;-67
2024/03/11 07:27:02;;;;;;;;;;;;;;;;;;5077920;28;19916;-67
2024/03/11 07:29:28;;;;;;;;;;;;;;;;;;5081468;28;19950;-67
2024/03/11 07:31:53;;;;;;;;;;;;;;;;;;5084707;28;20034;-66
2024/03/11 07:34:18;;;;;;;;;;;;;;;;;;5085537;28;19916;-65
2024/03/11 07:36:44;;;;;;;;;;;;;;;;;;5079384;28;21162;-65
2024/03/11 07:39:10;;;;;;;;;;;;;;;;;;5084630;28;19916;-67
2024/03/11 07:41:36;;;;;;;;;;;;;;;;;;5080226;28;19928;-62
2024/03/11 07:44:01;;;;;;;;;;;;;;;;;;5082004;28;19953;-59
2024/03/11 07:46:28;;;;;;;;;;;;;;;;;;5080813;28;19921;-60
2024/03/11 07:48:54;;;;;;;;;;;;;;;;;;5079433;28;20212;-60
2024/03/11 07:51:19;;;;;;;;;;;;;;;;;;5084321;28;20007;-59
2024/03/11 07:53:45;;;;;;;;;;;;;;;;;;5088248;28;19916;-59
2024/03/11 07:56:11;;;;;;;;;;;;;;;;;;5089437;28;19920;-59
2024/03/11 07:58:37;;;;;;;;;;;;;;;;;;5086014;28;19919;-59
2024/03/11 08:01:02;;;;;;;;;;;;;;;;;;5081583;28;20344;-59
2024/03/11 08:03:27;;;;;;;;;;;;;;;;;;5088349;28;19939;-59
2024/03/11 08:05:52;;;;;;;;;;;;;;;;;;5089002;28;20280;-59
2024/03/11 08:08:17;;;;;;;;;;;;;;;;;;5083209;28;20419;-59
2024/03/11 08:10:43;;;;;;;;;;;;;;;;;;5086438;28;19922;-60
2024/03/11 08:13:08;;;;;;;;;;;;;;;;;;5083607;28;19959;-59
2024/03/11 08:15:33;;;;;;;;;;;;;;;;;;5085197;28;19957;-59
2024/03/11 08:17:58;;;;;;;;;;;;;;;;;;5085940;28;19919;-59
2024/03/11 08:20:24;;;;;;;;;;;;;;;;;;5084689;28;19916;-59
2024/03/11 08:22:49;;;;;;;;;;;;;;;;;;5094304;28;19918;-59
2024/03/11 08:25:14;;;;;;;;;;;;;;;;;;5087131;28;19920;-60
2024/03/11 08:27:40;;;;;;;;;;;;;;;;;;5086939;28;20296;-59
2024/03/11 08:30:07;;;;;;;;;;;;;;;;;;5081675;28;19916;-60
2024/03/11 08:32:32;;;;;;;;;;;;;;;;;;5088236;28;19924;-59
2024/03/11 08:34:58;;;;;;;;;;;;;;;;;;5088858;28;19972;-59
2024/03/11 08:37:24;;;;;;;;;;;;;;;;;;5086379;28;19920;-59
2024/03/11 08:39:49;;;;;;;;;;;;;;;;;;5091295;28;19912;-59
2024/03/11 08:42:14;;;;;;;;;;;;;;;;;;5084160;28;20070;-59
2024/03/11 08:44:39;;;;;;;;;;;;;;;;;;5089273;28;19912;-59
2024/03/11 08:47:06;;;;;;;;;;;;;;;;;;5085690;28;19940;-60
2024/03/11 08:49:31;;;;;;;;;;;;;;;;;;5083518;28;19912;-61
2024/03/11 08:51:58;;;;;;;;;;;;;;;;;;5084699;28;19912;-59
2024/03/11 08:54:24;;;;;;;;;;;;;;;;;;5088452;28;19938;-59
2024/03/11 08:56:49;;;;;;;;;;;;;;;;;;5088164;28;19916;-61
2024/03/11 08:59:15;;;;;;;;;;;;;;;;;;5080926;28;19912;-59
2024/03/11 09:01:44;;;;;;;;;;;;;;;;;;5086973;28;20007;-59
2024/03/11 09:04:10;;;;;;;;;;;;;;;;;;5077694;28;19913;-59
2024/03/11 09:06:35;;;;;;;;;;;;;;;;;;5085038;28;19916;-59
2024/03/11 09:09:02;;;;;;;;;;;;;;;;;;5085713;28;19916;-59
2024/03/11 09:11:27;;;;;;;;;;;;;;;;;;5087753;28;19955;-59
2024/03/11 09:13:52;;;;;;;;;;;;;;;;;;5086731;28;20321;-60
2024/03/11 09:16:17;;;;;;;;;;;;;;;;;;5090710;28;20048;-59
2024/03/11 09:18:43;;;;;;;;;;;;;;;;;;5080798;28;19916;-59
2024/03/11 09:21:08;;;;;;;;;;;;;;;;;;5087730;28;19912;-59
2024/03/11 09:23:33;;;;;;;;;;;;;;;;;;5085199;28;19921;-59
2024/03/11 09:26:01;;;;;;;;;;;;;;;;;;5081206;28;19922;-59
2024/03/11 09:28:28;;;;;;;;;;;;;;;;;;5086341;28;19916;-59
2024/03/11 09:30:53;;;;;;;;;;;;;;;;;;5085826;28;19916;-60
2024/03/11 09:33:21;;;;;;;;;;;;;;;;;;5084670;28;19939;-59
2024/03/11 09:35:47;;;;;;;;;;;;;;;;;;5085130;28;19999;-59
2024/03/11 09:38:12;;;;;;;;;;;;;;;;;;5087826;28;20046;-59
2024/03/11 09:40:37;;;;;;;;;;;;;;;;;;5078749;28;20026;-60
2024/03/11 09:43:03;;;;;;;;;;;;;;;;;;5086915;28;19912;-59
2024/03/11 09:45:28;;;;;;;;;;;;;;;;;;5084515;28;19912;-59
2024/03/11 09:47:56;;;;;;;;;;;;;;;;;;5082951;28;19954;-59
2024/03/11 09:50:26;;;;;;;;;;;;;;;;;;5085042;28;19920;-60
2024/03/11 09:52:52;;;;;;;;;;;;;;;;;;5086340;28;20304;-59
2024/03/11 09:55:18;;;;;;;;;;;;;;;;;;5079752;28;19913;-60
2024/03/11 09:57:44;;;;;;;;;;;;;;;;;;5077313;28;20430;-59
2024/03/11 10:00:12;;;;;;;;;;;;;;;;;;5079472;28;19952;-59
2024/03/11 10:02:38;;;;;;;;;;;;;;;;;;5091725;28;19992;-59
2024/03/11 10:05:08;;;;;;;;;;;;;;;;;;5082314;28;19961;-59
2024/03/11 10:07:33;;;;;;;;;;;;;;;;;;5094861;28;20002;-59
2024/03/11 10:09:59;;;;;;;;;;;;;;;;;;5083901;28;20049;-59
2024/03/11 10:12:24;;;;;;;;;;;;;;;;;;5082661;28;19925;-60
2024/03/11 10:14:50;;;;;;;;;;;;;;;;;;5089611;28;19920;-60
2024/03/11 10:17:17;;;;;;;;;;;;;;;;;;5081737;28;19924;-60
2024/03/11 10:19:42;;;;;;;;;;;;;;;;;;5086079;28;20000;-59
2024/03/11 10:22:09;;;;;;;;;;;;;;;;;;5085691;28;19987;-66
2024/03/11 10:24:34;;;;;;;;;;;;;;;;;;5089785;28;19919;-66
2024/03/11 10:26:59;;;;;;;;;;;;;;;;;;5085599;28;19912;-66
2024/03/11 10:29:24;;;;;;;;;;;;;;;;;;5082374;28;19912;-66
2024/03/11 10:31:51;;;;;;;;;;;;;;;;;;5082172;28;19912;-66
2024/03/11 10:34:20;;;;;;;;;;;;;;;;;;5083913;28;19924;-66
2024/03/11 10:36:46;;;;;;;;;;;;;;;;;;5082971;28;19915;-65
2024/03/11 10:39:24;;;;;;;;;;;;;;;;;;5081365;28;19962;-66
2024/03/11 10:41:52;;;;;;;;;;;;;;;;;;5084845;28;19928;-66
2024/03/11 10:44:19;;;;;;;;;;;;;;;;;;5078968;28;19912;-65
2024/03/11 10:46:44;;;;;;;;;;;;;;;;;;5083104;28;20365;-65
2024/03/11 10:49:12;;;;;;;;;;;;;;;;;;5082742;28;20377;-66
2024/03/11 10:51:37;;;;;;;;;;;;;;;;;;5079657;28;20003;-66
2024/03/11 10:54:03;;;;;;;;;;;;;;;;;;5081662;28;20011;-66
2024/03/11 10:56:29;;;;;;;;;;;;;;;;;;5087451;28;19919;-63
2024/03/11 10:58:56;;;;;;;;;;;;;;;;;;5078818;28;19920;-63
2024/03/11 11:01:21;;;;;;;;;;;;;;;;;;5078348;28;20375;-64
2024/03/11 11:03:52;;;;;;;;;;;;;;;;;;5083888;28;19920;-64
2024/03/11 11:06:21;;;;;;;;;;;;;;;;;;5089111;28;19909;-64
2024/03/11 11:08:48;;;;;;;;;;;;;;;;;;5081933;28;20011;-64
2024/03/11 11:11:17;;;;;;;;;;;;;;;;;;5086237;28;19908;-64
2024/03/11 11:13:42;;;;;;;;;;;;;;;;;;5083837;28;20298;-64
2024/03/11 11:16:07;;;;;;;;;;;;;;;;;;5084997;28;19920;-64
2024/03/11 11:18:33;;;;;;;;;;;;;;;;;;5083527;28;19908;-64
2024/03/11 11:20:58;;;;;;;;;;;;;;;;;;5086069;28;19923;-64
2024/03/11 11:23:24;;;;;;;;;;;;;;;;;;5082066;28;19928;-63
2024/03/11 11:25:51;;;;;;;;;;;;;;;;;;5088750;28;19912;-64
2024/03/11 11:28:16;;;;;;;;;;;;;;;;;;5083805;28;19912;-64
2024/03/11 11:30:42;;;;;;;;;;;;;;;;;;5085741;28;19916;-64
2024/03/11 11:33:07;;;;;;;;;;;;;;;;;;5091507;28;19912;-64
2024/03/11 11:35:32;;;;;;;;;;;;;;;;;;5090090;28;19919;-64
2024/03/11 11:37:57;;;;;;;;;;;;;;;;;;5090049;28;19934;-64
2024/03/11 11:40:22;;;;;;;;;;;;;;;;;;5086004;28;19916;-64
2024/03/11 11:42:49;;;;;;;;;;;;;;;;;;5088792;28;19925;-64
2024/03/11 11:45:14;;;;;;;;;;;;;;;;;;5087364;28;19920;-64
2024/03/11 11:47:40;;;;;;;;;;;;;;;;;;5089647;28;19970;-65
2024/03/11 11:50:05;;;;;;;;;;;;;;;;;;5081778;28;19920;-64
2024/03/11 11:52:31;;;;;;;;;;;;;;;;;;5083806;28;19923;-64
2024/03/11 11:54:57;;;;;;;;;;;;;;;;;;5089828;28;19920;-64
2024/03/11 11:57:24;;;;;;;;;;;;;;;;;;5093637;28;19912;-66
2024/03/11 11:59:49;;;;;;;;;;;;;;;;;;5082396;28;19965;-64
2024/03/11 12:02:15;;;;;;;;;;;;;;;;;;5090013;28;20520;-62
2024/03/11 12:04:41;;;;;;;;;;;;;;;;;;5087981;28;19919;-64
2024/03/11 12:07:06;;;;;;;;;;;;;;;;;;5083146;28;19918;-64
2024/03/11 12:09:34;;;;;;;;;;;;;;;;;;5087377;28;19916;-64
2024/03/11 12:11:59;;;;;;;;;;;;;;;;;;5086913;28;20433;-64
2024/03/11 12:14:25;;;;;;;;;;;;;;;;;;5084437;28;20364;-64
2024/03/11 12:16:50;;;;;;;;;;;;;;;;;;5087221;28;19913;-64
2024/03/11 12:19:16;;;;;;;;;;;;;;;;;;5088782;28;19928;-64
2024/03/11 12:21:42;;;;;;;;;;;;;;;;;;5084110;28;19991;-64
2024/03/11 12:24:09;;;;;;;;;;;;;;;;;;5087405;28;20003;-64
2024/03/11 12:26:35;;;;;;;;;;;;;;;;;;5090265;28;19916;-64
2024/03/11 12:29:00;;;;;;;;;;;;;;;;;;5082548;28;19923;-65
2024/03/11 12:31:25;;;;;;;;;;;;;;;;;;5088552;28;19919;-65
2024/03/11 12:33:51;;;;;;;;;;;;;;;;;;5087969;28;19923;-64
2024/03/11 12:36:16;;;;;;;;;;;;;;;;;;5083927;28;19916;-64
2024/03/11 12:38:42;;;;;;;;;;;;;;;;;;5084850;28;19923;-64
2024/03/11 12:41:07;;;;;;;;;;;;;;;;;;5087027;28;19936;-64
2024/03/11 12:43:35;;;;;;;;;;;;;;;;;;5078607;28;19919;-57
2024/03/11 12:46:05;;;;;;;;;;;;;;;;;;5067448;28;20360;-58
2024/03/11 12:48:31;;;;;;;;;;;;;;;;;;5085490;28;20418;-58
2024/03/11 12:50:56;;;;;;;;;;;;;;;;;;5085241;28;19947;-58
2024/03/11 12:53:21;;;;;;;;;;;;;;;;;;5089279;28;20404;-58
2024/03/11 12:55:46;;;;;;;;;;;;;;;;;;5086456;28;19912;-59
2024/03/11 12:58:12;;;;;;;;;;;;;;;;;;5079712;28;20333;-57
2024/03/11 13:00:40;;;;;;;;;;;;;;;;;;5086903;28;19916;-57
2024/03/11 13:03:08;;;;;;;;;;;;;;;;;;5087140;28;19913;-58
2024/03/11 13:05:34;;;;;;;;;;;;;;;;;;5088042;28;20306;-58
2024/03/11 13:07:59;;;;;;;;;;;;;;;;;;5087746;28;19939;-58
2024/03/11 13:10:24;;;;;;;;;;;;;;;;;;5080999;28;19926;-57
2024/03/11 13:12:49;;;;;;;;;;;;;;;;;;5085622;28;19917;-59
2024/03/11 13:15:15;;;;;;;;;;;;;;;;;;5085284;28;19920;-58
2024/03/11 13:17:40;;;;;;;;;;;;;;;;;;5081462;28;19916;-58
2024/03/11 13:20:07;;;;;;;;;;;;;;;;;;5082014;28;20019;-57
2024/03/11 13:22:33;;;;;;;;;;;;;;;;;;5087672;28;19957;-57
2024/03/11 13:25:05;;;;;;;;;;;;;;;;;;5086139;28;19916;-58
2024/03/11 13:27:30;;;;;;;;;;;;;;;;;;5092202;28;20073;-57
2024/03/11 13:29:55;;;;;;;;;;;;;;;;;;5088209;28;20347;-58
2024/03/11 13:32:21;;;;;;;;;;;;;;;;;;5062185;28;20380;-57
2024/03/11 13:34:46;;;;;;;;;;;;;;;;;;5080997;28;19955;-57
2024/03/11 13:37:12;;;;;;;;;;;;;;;;;;5080925;28;19963;-57
2024/03/11 13:39:38;;;;;;;;;;;;;;;;;;5085492;28;19920;-59
2024/03/11 13:42:03;;;;;;;;;;;;;;;;;;5082295;28;20420;-60
2024/03/11 13:44:28;;;;;;;;;;;;;;;;;;5088524;28;19994;-58
2024/03/11 13:46:54;;;;;;;;;;;;;;;;;;5083510;28;20381;-58
2024/03/11 13:49:21;;;;;;;;;;;;;;;;;;5082393;28;19912;-57
2024/03/11 13:51:47;;;;;;;;;;;;;;;;;;5089572;28;20269;-58
2024/03/11 13:54:13;;;;;;;;;;;;;;;;;;5087375;28;19916;-65
2024/03/11 13:56:39;;;;;;;;;;;;;;;;;;5088093;28;19908;-65
2024/03/11 13:59:07;;;;;;;;;;;;;;;;;;5084235;28;19919;-65
2024/03/11 14:01:32;;;;;;;;;;;;;;;;;;5085520;28;20595;-64
2024/03/11 14:03:58;;;;;;;;;;;;;;;;;;5081048;28;20001;-65
2024/03/11 14:06:25;;;;;;;;;;;;;;;;;;5083782;28;19924;-65
2024/03/11 14:08:51;;;;;;;;;;;;;;;;;;5078313;28;19920;-65
2024/03/11 14:11:16;;;;;;;;;;;;;;;;;;5086225;28;19912;-64
2024/03/11 14:13:43;;;;;;;;;;;;;;;;;;5083060;28;19940;-65
2024/03/11 14:16:11;;;;;;;;;;;;;;;;;;5084452;28;19981;-65
2024/03/11 14:18:36;;;;;;;;;;;;;;;;;;5083602;28;19913;-65
2024/03/11 14:21:04;;;;;;;;;;;;;;;;;;5087833;28;20007;-65
2024/03/11 14:23:29;;;;;;;;;;;;;;;;;;5081329;28;19915;-64
2024/03/11 14:25:54;;;;;;;;;;;;;;;;;;5086602;28;19913;-62
2024/03/11 14:28:19;;;;;;;;;;;;;;;;;;5081682;28;19919;-65
2024/03/11 14:30:45;;;;;;;;;;;;;;;;;;5086485;28;19916;-65
2024/03/11 14:33:10;;;;;;;;;;;;;;;;;;5083403;28;19912;-64
2024/03/11 14:35:35;;;;;;;;;;;;;;;;;;5081508;28;19916;-64
2024/03/11 14:38:00;;;;;;;;;;;;;;;;;;5080560;28;19908;-65
2024/03/11 14:40:31;;;;;;;;;;;;;;;;;;5078334;28;19916;-64
2024/03/11 14:42:57;;;;;;;;;;;;;;;;;;5081065;28;20003;-65
2024/03/11 14:45:22;;;;;;;;;;;;;;;;;;5081350;28;20405;-64
2024/03/11 14:47:48;;;;;;;;;;;;;;;;;;5084496;28;20340;-65
2024/03/11 14:50:15;;;;;;;;;;;;;;;;;;5078853;28;20342;-65
2024/03/11 14:52:42;;;;;;;;;;;;;;;;;;5084182;28;19931;-65
2024/03/11 14:55:09;;;;;;;;;;;;;;;;;;5083345;28;19919;-63
2024/03/11 14:57:34;;;;;;;;;;;;;;;;;;5082573;28;19912;-65
2024/03/11 15:00:10;;;;;;;;;;;;;;;;;;5078961;28;19969;-65
2024/03/11 15:02:36;;;;;;;;;;;;;;;;;;5086334;28;20548;-57
2024/03/11 15:05:01;;;;;;;;;;;;;;;;;;5086622;28;19950;-58
2024/03/11 15:07:26;;;;;;;;;;;;;;;;;;5086487;28;19916;-58
2024/03/11 15:09:55;;;;;;;;;;;;;;;;;;5086568;28;19948;-60
2024/03/11 15:12:22;;;;;;;;;;;;;;;;;;5085337;28;19912;-57
2024/03/11 15:14:48;;;;;;;;;;;;;;;;;;5081839;28;20266;-58
2024/03/11 15:17:13;;;;;;;;;;;;;;;;;;5083441;28;20285;-58
2024/03/11 15:19:39;;;;;;;;;;;;;;;;;;5086755;28;20267;-58
2024/03/11 15:22:05;;;;;;;;;;;;;;;;;;5085873;28;19983;-58
2024/03/11 15:24:30;;;;;;;;;;;;;;;;;;5088413;28;19919;-58
2024/03/11 15:26:55;;;;;;;;;;;;;;;;;;5083701;28;19927;-58
2024/03/11 15:29:21;;;;;;;;;;;;;;;;;;5085855;28;20001;-57
2024/03/11 15:31:47;;;;;;;;;;;;;;;;;;5081814;28;19917;-58
2024/03/11 15:34:14;;;;;;;;;;;;;;;;;;5082543;28;19924;-57
2024/03/11 15:36:40;;;;;;;;;;;;;;;;;;5081338;28;19930;-57
2024/03/11 15:39:05;;;;;;;;;;;;;;;;;;5081818;28;20029;-57
2024/03/11 15:41:30;;;;;;;;;;;;;;;;;;5078892;28;20339;-58
2024/03/11 15:43:55;;;;;;;;;;;;;;;;;;5084502;28;20327;-58
2024/03/11 15:46:20;;;;;;;;;;;;;;;;;;5087562;28;20284;-58
2024/03/11 15:48:49;;;;;;;;;;;;;;;;;;5079874;28;20388;-58
2024/03/11 15:51:15;;;;;;;;;;;;;;;;;;5085538;28;19957;-57
2024/03/11 15:53:40;;;;;;;;;;;;;;;;;;5084263;28;19924;-58
2024/03/11 15:56:08;;;;;;;;;;;;;;;;;;5089726;28;19998;-58
2024/03/11 15:58:35;;;;;;;;;;;;;;;;;;5082200;28;19912;-58
2024/03/11 16:01:00;;;;;;;;;;;;;;;;;;5085044;28;20335;-57
2024/03/11 16:03:25;;;;;;;;;;;;;;;;;;5079532;28;20401;-58
2024/03/11 16:05:50;;;;;;;;;;;;;;;;;;5086255;28;19999;-58
2024/03/11 16:08:16;;;;;;;;;;;;;;;;;;5081356;28;20014;-58
2024/03/11 16:10:42;;;;;;;;;;;;;;;;;;5080274;28;20312;-57
2024/03/11 16:13:09;;;;;;;;;;;;;;;;;;5086026;28;19916;-58
2024/03/11 16:15:34;;;;;;;;;;;;;;;;;;5090669;28;19922;-57
2024/03/11 16:17:59;;;;;;;;;;;;;;;;;;5088083;28;20003;-57
2024/03/11 16:20:25;;;;;;;;;;;;;;;;;;5083376;28;19920;-57
2024/03/11 16:22:50;;;;;;;;;;;;;;;;;;5090572;28;19912;-58
2024/03/11 16:25:16;;;;;;;;;;;;;;;;;;5088647;28;19916;-58
2024/03/11 16:27:41;;;;;;;;;;;;;;;;;;5099506;28;20023;-58
2024/03/11 16:30:07;;;;;;;;;;;;;;;;;;5092863;28;19916;-58
2024/03/11 16:32:32;;;;;;;;;;;;;;;;;;5098472;28;19945;-58
2024/03/11 16:34:58;;;;;;;;;;;;;;;;;;5082658;28;19927;-58
2024/03/11 16:37:23;;;;;;;;;;;;;;;;;;5086204;28;20253;-57